If you wish to contribute or participate in the discussions about articles you are invited to join SKYbrary as a registered user

 Actions

Savannakhet Airport

From SKYbrary Wiki

VLSK /
Revision as of 12:27, 19 August 2019 by Integration.Manager (talk | contribs)
(diff) ← Older revision | Latest revision (diff) | Newer revision → (diff)
Airport
ICAO: VLSK – IATA: ZVK
Summary
Name Savannakhet Airport
Region Asia and Pacific
Territory Laos LA.gif
Location Savannakhet, Khoueng Savannakhet
Serving Savannakhet
Elevation 155.143 m
509 ft
509 ft155.143 m
Type medium airport
Coordinates 16° 33' 23.72" N, 104° 45' 34.31" E
Runways
Designator Length Width Surface ROPS
4/22 1633 m5,357.612 ft
38 m124.672 ft
CON /


METAR
Observation VLSK 160300Z 06004KT 5000 HZ FEW020 31/23 Q1010 NOSIG
Station Savannakhet
Date/Time 16 September 2019 03:00:00
Wind direction 60°
Wind speed 04 kts
Lowest cloud amount few clouds
Temperature 31°C
Dew point 23°C
Humidity 62%
QNH 1010 hPa
Weather condition n/a

Savannakhet Airport is an airport near Savannakhet, Laos.

Climatology

Tropical savannah climate (Köppen climate classification Aw)

Maps

Terrain

Loading map...

Airport Layout

Loading map...


Accidents & Serious Incidents at or in vicinity of VLSK

None on SKYbrary